sensor_id;sensor_type;location;lat;lon;timestamp;temperature;humidity
33492;DHT22;20010;51.488;7.232;2022-11-03T00:01:36;10.80;99.90
33492;DHT22;20010;51.488;7.232;2022-11-03T00:04:05;10.90;99.90
33492;DHT22;20010;51.488;7.232;2022-11-03T00:06:32;10.80;99.90
33492;DHT22;20010;51.488;7.232;2022-11-03T00:09:01;10.80;99.90
33492;DHT22;20010;51.488;7.232;2022-11-03T00:11:28;10.90;99.90
33492;DHT22;20010;51.488;7.232;2022-11-03T00:13:55;10.90;99.90
33492;DHT22;20010;51.488;7.232;2022-11-03T00:16:22;10.90;99.90
33492;DHT22;20010;51.488;7.232;2022-11-03T00:18:50;10.90;99.90
33492;DHT22;20010;51.488;7.232;2022-11-03T00:21:17;10.90;99.90
33492;DHT22;20010;51.488;7.232;2022-11-03T00:23:45;10.90;99.90
33492;DHT22;20010;51.488;7.232;2022-11-03T00:26:16;11.00;99.90
33492;DHT22;20010;51.488;7.232;2022-11-03T00:28:45;11.00;99.90
33492;DHT22;20010;51.488;7.232;2022-11-03T00:31:17;10.90;99.90
33492;DHT22;20010;51.488;7.232;2022-11-03T00:33:45;11.00;99.90
33492;DHT22;20010;51.488;7.232;2022-11-03T00:36:14;11.00;99.90
33492;DHT22;20010;51.488;7.232;2022-11-03T00:38:43;11.00;99.90
33492;DHT22;20010;51.488;7.232;2022-11-03T00:41:10;11.10;99.90
33492;DHT22;20010;51.488;7.232;2022-11-03T00:43:37;11.10;99.90
33492;DHT22;20010;51.488;7.232;2022-11-03T00:46:06;11.10;99.90
33492;DHT22;20010;51.488;7.232;2022-11-03T00:48:34;11.20;99.90
33492;DHT22;20010;51.488;7.232;2022-11-03T00:51:08;11.20;99.90
33492;DHT22;20010;51.488;7.232;2022-11-03T00:53:40;11.20;99.90
33492;DHT22;20010;51.488;7.232;2022-11-03T00:56:16;11.20;99.90
33492;DHT22;20010;51.488;7.232;2022-11-03T00:58:43;11.20;99.90
33492;DHT22;20010;51.488;7.232;2022-11-03T01:03:40;11.20;99.90
33492;DHT22;20010;51.488;7.232;2022-11-03T01:06:08;11.10;99.90
33492;DHT22;20010;51.488;7.232;2022-11-03T01:08:58;11.30;99.90
33492;DHT22;20010;51.488;7.232;2022-11-03T01:11:24;11.20;99.90
33492;DHT22;20010;51.488;7.232;2022-11-03T01:14:14;11.20;99.90
33492;DHT22;20010;51.488;7.232;2022-11-03T01:16:41;11.30;99.90
33492;DHT22;20010;51.488;7.232;2022-11-03T01:19:08;11.20;99.90
33492;DHT22;20010;51.488;7.232;2022-11-03T01:21:36;11.30;99.90
33492;DHT22;20010;51.488;7.232;2022-11-03T01:24:03;11.30;99.90
33492;DHT22;20010;51.488;7.232;2022-11-03T01:26:31;11.30;99.90
33492;DHT22;20010;51.488;7.232;2022-11-03T01:28:59;11.30;99.90
33492;DHT22;20010;51.488;7.232;2022-11-03T01:31:26;11.30;99.90
33492;DHT22;20010;51.488;7.232;2022-11-03T01:33:54;11.30;99.90
33492;DHT22;20010;51.488;7.232;2022-11-03T01:36:22;11.20;99.90
33492;DHT22;20010;51.488;7.232;2022-11-03T01:38:49;11.20;99.90
33492;DHT22;20010;51.488;7.232;2022-11-03T01:41:20;11.20;99.90
33492;DHT22;20010;51.488;7.232;2022-11-03T01:43:50;11.20;99.90
33492;DHT22;20010;51.488;7.232;2022-11-03T01:46:30;11.20;99.90
33492;DHT22;20010;51.488;7.232;2022-11-03T01:49:19;11.20;99.90
33492;DHT22;20010;51.488;7.232;2022-11-03T01:52:00;11.10;99.90
33492;DHT22;20010;51.488;7.232;2022-11-03T01:54:29;11.10;99.90
33492;DHT22;20010;51.488;7.232;2022-11-03T01:56:57;11.10;99.90
33492;DHT22;20010;51.488;7.232;2022-11-03T01:59:26;11.10;99.90
33492;DHT22;20010;51.488;7.232;2022-11-03T02:01:55;11.10;99.90
33492;DHT22;20010;51.488;7.232;2022-11-03T02:04:26;11.00;99.90
33492;DHT22;20010;51.488;7.232;2022-11-03T02:07:21;11.00;99.90
33492;DHT22;20010;51.488;7.232;2022-11-03T02:09:46;11.00;99.90
33492;DHT22;20010;51.488;7.232;2022-11-03T02:12:13;11.00;99.90
33492;DHT22;20010;51.488;7.232;2022-11-03T02:14:44;11.00;99.90
33492;DHT22;20010;51.488;7.232;2022-11-03T02:17:15;11.00;99.90
33492;DHT22;20010;51.488;7.232;2022-11-03T02:19:50;11.00;99.90
33492;DHT22;20010;51.488;7.232;2022-11-03T02:25:15;11.00;99.90
33492;DHT22;20010;51.488;7.232;2022-11-03T02:27:43;11.00;99.90
33492;DHT22;20010;51.488;7.232;2022-11-03T02:30:10;11.00;99.90
33492;DHT22;20010;51.488;7.232;2022-11-03T02:37:48;11.00;99.90
33492;DHT22;20010;51.488;7.232;2022-11-03T02:40:29;11.00;99.90
33492;DHT22;20010;51.488;7.232;2022-11-03T02:42:57;11.00;99.90
33492;DHT22;20010;51.488;7.232;2022-11-03T02:45:27;11.00;99.90
33492;DHT22;20010;51.488;7.232;2022-11-03T02:47:57;11.00;99.90
33492;DHT22;20010;51.488;7.232;2022-11-03T02:50:32;11.00;99.90
33492;DHT22;20010;51.488;7.232;2022-11-03T02:52:59;10.90;99.90
33492;DHT22;20010;51.488;7.232;2022-11-03T02:56:03;10.90;99.90
33492;DHT22;20010;51.488;7.232;2022-11-03T02:58:55;10.90;99.90
33492;DHT22;20010;51.488;7.232;2022-11-03T03:01:29;10.90;99.90
33492;DHT22;20010;51.488;7.232;2022-11-03T03:04:04;11.00;99.90
33492;DHT22;20010;51.488;7.232;2022-11-03T03:06:49;11.00;99.90
33492;DHT22;20010;51.488;7.232;2022-11-03T03:09:24;11.00;99.90
33492;DHT22;20010;51.488;7.232;2022-11-03T03:11:53;11.00;99.90
33492;DHT22;20010;51.488;7.232;2022-11-03T03:14:28;11.00;99.90
33492;DHT22;20010;51.488;7.232;2022-11-03T03:17:13;11.00;99.90
33492;DHT22;20010;51.488;7.232;2022-11-03T03:19:55;11.00;99.90
33492;DHT22;20010;51.488;7.232;2022-11-03T03:22:34;11.00;99.90
33492;DHT22;20010;51.488;7.232;2022-11-03T03:27:40;11.00;99.90
33492;DHT22;20010;51.488;7.232;2022-11-03T03:30:09;11.00;99.90
33492;DHT22;20010;51.488;7.232;2022-11-03T03:32:38;11.00;99.90
33492;DHT22;20010;51.488;7.232;2022-11-03T03:35:09;11.00;99.90
33492;DHT22;20010;51.488;7.232;2022-11-03T03:37:38;11.00;99.90
33492;DHT22;20010;51.488;7.232;2022-11-03T03:40:10;11.00;99.90
33492;DHT22;20010;51.488;7.232;2022-11-03T03:42:38;11.00;99.90
33492;DHT22;20010;51.488;7.232;2022-11-03T03:45:07;11.00;99.90
33492;DHT22;20010;51.488;7.232;2022-11-03T03:47:35;11.00;99.90
33492;DHT22;20010;51.488;7.232;2022-11-03T03:50:02;11.00;99.90
33492;DHT22;20010;51.488;7.232;2022-11-03T03:52:29;11.00;99.90
33492;DHT22;20010;51.488;7.232;2022-11-03T03:54:59;11.00;99.90
33492;DHT22;20010;51.488;7.232;2022-11-03T03:57:27;11.00;99.90
33492;DHT22;20010;51.488;7.232;2022-11-03T03:59:55;11.00;99.90
33492;DHT22;20010;51.488;7.232;2022-11-03T04:02:21;11.00;99.90
33492;DHT22;20010;51.488;7.232;2022-11-03T04:04:48;11.00;99.90
33492;DHT22;20010;51.488;7.232;2022-11-03T04:07:15;11.00;99.90
33492;DHT22;20010;51.488;7.232;2022-11-03T04:10:09;11.00;99.90
33492;DHT22;20010;51.488;7.232;2022-11-03T04:12:36;11.00;99.90
33492;DHT22;20010;51.488;7.232;2022-11-03T04:15:21;11.00;99.90
33492;DHT22;20010;51.488;7.232;2022-11-03T04:18:07;11.00;99.90
33492;DHT22;20010;51.488;7.232;2022-11-03T04:20:52;11.10;99.90
33492;DHT22;20010;51.488;7.232;2022-11-03T04:23:37;11.10;99.90
33492;DHT22;20010;51.488;7.232;2022-11-03T04:26:11;11.10;99.90
33492;DHT22;20010;51.488;7.232;2022-11-03T04:28:38;11.10;99.90
33492;DHT22;20010;51.488;7.232;2022-11-03T04:31:13;11.00;99.90
33492;DHT22;20010;51.488;7.232;2022-11-03T04:33:40;11.10;99.90
33492;DHT22;20010;51.488;7.232;2022-11-03T04:38:37;11.20;99.90
33492;DHT22;20010;51.488;7.232;2022-11-03T04:41:16;11.10;99.90
33492;DHT22;20010;51.488;7.232;2022-11-03T04:43:44;11.10;99.90
33492;DHT22;20010;51.488;7.232;2022-11-03T04:46:15;11.20;99.90
33492;DHT22;20010;51.488;7.232;2022-11-03T04:48:43;11.20;99.90
33492;DHT22;20010;51.488;7.232;2022-11-03T04:51:15;11.20;99.90
33492;DHT22;20010;51.488;7.232;2022-11-03T04:53:52;11.20;99.90
33492;DHT22;20010;51.488;7.232;2022-11-03T04:56:22;11.20;99.90
33492;DHT22;20010;51.488;7.232;2022-11-03T04:58:50;11.20;99.90
33492;DHT22;20010;51.488;7.232;2022-11-03T05:01:19;11.20;99.90
33492;DHT22;20010;51.488;7.232;2022-11-03T05:03:52;11.30;99.90
33492;DHT22;20010;51.488;7.232;2022-11-03T05:06:26;11.20;99.90
33492;DHT22;20010;51.488;7.232;2022-11-03T05:09:01;11.20;99.90
33492;DHT22;20010;51.488;7.232;2022-11-03T05:11:37;11.20;99.90
33492;DHT22;20010;51.488;7.232;2022-11-03T05:14:18;11.20;99.90
33492;DHT22;20010;51.488;7.232;2022-11-03T05:16:47;11.20;99.90
33492;DHT22;20010;51.488;7.232;2022-11-03T05:19:21;11.20;99.90
33492;DHT22;20010;51.488;7.232;2022-11-03T05:21:50;11.20;99.90
33492;DHT22;20010;51.488;7.232;2022-11-03T05:24:20;11.20;99.90
33492;DHT22;20010;51.488;7.232;2022-11-03T05:26:48;11.20;99.90
33492;DHT22;20010;51.488;7.232;2022-11-03T05:29:18;11.20;99.90
33492;DHT22;20010;51.488;7.232;2022-11-03T05:31:48;11.20;99.90
33492;DHT22;20010;51.488;7.232;2022-11-03T05:34:41;11.30;99.90
33492;DHT22;20010;51.488;7.232;2022-11-03T05:39:59;11.30;99.90
33492;DHT22;20010;51.488;7.232;2022-11-03T05:42:38;11.30;99.90
33492;DHT22;20010;51.488;7.232;2022-11-03T05:45:32;11.30;99.90
33492;DHT22;20010;51.488;7.232;2022-11-03T05:48:00;11.30;99.90
33492;DHT22;20010;51.488;7.232;2022-11-03T05:50:29;11.40;99.90
33492;DHT22;20010;51.488;7.232;2022-11-03T05:55:55;11.40;99.90
33492;DHT22;20010;51.488;7.232;2022-11-03T05:58:28;11.40;99.90
33492;DHT22;20010;51.488;7.232;2022-11-03T06:00:55;11.40;99.90
33492;DHT22;20010;51.488;7.232;2022-11-03T06:03:25;11.50;99.90
33492;DHT22;20010;51.488;7.232;2022-11-03T06:05:52;11.50;99.90
33492;DHT22;20010;51.488;7.232;2022-11-03T06:08:23;11.60;99.90
33492;DHT22;20010;51.488;7.232;2022-11-03T06:10:53;11.50;99.90
33492;DHT22;20010;51.488;7.232;2022-11-03T06:13:50;11.60;99.90
33492;DHT22;20010;51.488;7.232;2022-11-03T06:16:39;11.60;99.90
33492;DHT22;20010;51.488;7.232;2022-11-03T06:19:21;11.50;99.90
33492;DHT22;20010;51.488;7.232;2022-11-03T06:21:49;11.50;99.90
33492;DHT22;20010;51.488;7.232;2022-11-03T06:24:21;11.50;99.90
33492;DHT22;20010;51.488;7.232;2022-11-03T06:26:48;11.40;99.90
33492;DHT22;20010;51.488;7.232;2022-11-03T06:29:18;11.60;99.90
33492;DHT22;20010;51.488;7.232;2022-11-03T06:31:48;11.60;99.90
33492;DHT22;20010;51.488;7.232;2022-11-03T06:34:26;11.60;99.90
33492;DHT22;20010;51.488;7.232;2022-11-03T06:36:56;11.60;99.90
33492;DHT22;20010;51.488;7.232;2022-11-03T06:39:23;11.50;99.90
33492;DHT22;20010;51.488;7.232;2022-11-03T06:41:51;11.60;99.90
33492;DHT22;20010;51.488;7.232;2022-11-03T06:44:28;11.60;99.90
33492;DHT22;20010;51.488;7.232;2022-11-03T06:46:59;11.60;99.90
33492;DHT22;20010;51.488;7.232;2022-11-03T06:49:33;11.60;99.90
33492;DHT22;20010;51.488;7.232;2022-11-03T06:57:45;11.70;99.90
33492;DHT22;20010;51.488;7.232;2022-11-03T07:03:32;11.70;99.90
33492;DHT22;20010;51.488;7.232;2022-11-03T07:08:45;11.70;99.90
33492;DHT22;20010;51.488;7.232;2022-11-03T07:13:40;11.70;99.90
33492;DHT22;20010;51.488;7.232;2022-11-03T07:16:57;11.70;99.90
33492;DHT22;20010;51.488;7.232;2022-11-03T07:18:59;11.70;99.90
33492;DHT22;20010;51.488;7.232;2022-11-03T07:21:36;11.70;99.90
33492;DHT22;20010;51.488;7.232;2022-11-03T07:24:18;11.80;99.90
33492;DHT22;20010;51.488;7.232;2022-11-03T07:26:45;11.80;99.90
33492;DHT22;20010;51.488;7.232;2022-11-03T07:29:20;11.80;99.90
33492;DHT22;20010;51.488;7.232;2022-11-03T07:31:50;11.90;99.90
33492;DHT22;20010;51.488;7.232;2022-11-03T07:34:22;11.90;99.90
33492;DHT22;20010;51.488;7.232;2022-11-03T07:36:51;11.90;99.90
33492;DHT22;20010;51.488;7.232;2022-11-03T07:39:21;11.90;99.90
33492;DHT22;20010;51.488;7.232;2022-11-03T07:41:49;11.90;99.90
33492;DHT22;20010;51.488;7.232;2022-11-03T07:44:18;11.90;99.90
33492;DHT22;20010;51.488;7.232;2022-11-03T07:46:49;11.90;99.90
33492;DHT22;20010;51.488;7.232;2022-11-03T07:49:25;11.90;99.90
33492;DHT22;20010;51.488;7.232;2022-11-03T07:51:54;11.90;99.90
33492;DHT22;20010;51.488;7.232;2022-11-03T07:54:23;12.00;99.90
33492;DHT22;20010;51.488;7.232;2022-11-03T07:57:22;12.10;99.90
33492;DHT22;20010;51.488;7.232;2022-11-03T07:59:51;12.10;99.90
33492;DHT22;20010;51.488;7.232;2022-11-03T08:04:52;12.20;99.90
33492;DHT22;20010;51.488;7.232;2022-11-03T08:07:18;12.20;99.90
33492;DHT22;20010;51.488;7.232;2022-11-03T08:09:45;12.30;99.90
33492;DHT22;20010;51.488;7.232;2022-11-03T08:12:12;12.40;99.90
33492;DHT22;20010;51.488;7.232;2022-11-03T08:14:39;12.40;99.90
33492;DHT22;20010;51.488;7.232;2022-11-03T08:17:05;12.50;99.90
33492;DHT22;20010;51.488;7.232;2022-11-03T08:19:33;12.40;99.90
33492;DHT22;20010;51.488;7.232;2022-11-03T08:21:59;12.50;99.90
33492;DHT22;20010;51.488;7.232;2022-11-03T08:24:26;12.60;99.90
33492;DHT22;20010;51.488;7.232;2022-11-03T08:26:53;12.60;99.90
33492;DHT22;20010;51.488;7.232;2022-11-03T08:29:19;12.70;99.90
33492;DHT22;20010;51.488;7.232;2022-11-03T08:31:46;12.80;99.90
33492;DHT22;20010;51.488;7.232;2022-11-03T08:34:13;12.80;99.90
33492;DHT22;20010;51.488;7.232;2022-11-03T08:36:40;12.80;99.90
33492;DHT22;20010;51.488;7.232;2022-11-03T08:39:07;12.80;99.90
33492;DHT22;20010;51.488;7.232;2022-11-03T08:41:34;12.80;99.90
33492;DHT22;20010;51.488;7.232;2022-11-03T08:44:00;12.90;99.90
33492;DHT22;20010;51.488;7.232;2022-11-03T08:46:27;12.90;99.90
33492;DHT22;20010;51.488;7.232;2022-11-03T08:48:54;12.90;99.90
33492;DHT22;20010;51.488;7.232;2022-11-03T08:51:21;12.90;99.90
33492;DHT22;20010;51.488;7.232;2022-11-03T08:53:48;12.90;99.90
33492;DHT22;20010;51.488;7.232;2022-11-03T08:56:20;13.00;99.90
33492;DHT22;20010;51.488;7.232;2022-11-03T08:58:48;13.00;99.90
33492;DHT22;20010;51.488;7.232;2022-11-03T09:01:15;13.00;99.90
33492;DHT22;20010;51.488;7.232;2022-11-03T09:03:42;13.00;99.90
33492;DHT22;20010;51.488;7.232;2022-11-03T09:06:09;13.00;99.90
33492;DHT22;20010;51.488;7.232;2022-11-03T09:08:36;13.10;99.90
33492;DHT22;20010;51.488;7.232;2022-11-03T09:11:23;13.20;99.90
33492;DHT22;20010;51.488;7.232;2022-11-03T09:13:49;13.30;99.90
33492;DHT22;20010;51.488;7.232;2022-11-03T09:16:16;13.40;99.90
33492;DHT22;20010;51.488;7.232;2022-11-03T09:18:43;13.40;99.90
33492;DHT22;20010;51.488;7.232;2022-11-03T09:21:11;13.50;99.90
33492;DHT22;20010;51.488;7.232;2022-11-03T09:23:39;13.50;99.90
33492;DHT22;20010;51.488;7.232;2022-11-03T09:26:05;13.60;99.90
33492;DHT22;20010;51.488;7.232;2022-11-03T09:28:32;13.70;99.90
33492;DHT22;20010;51.488;7.232;2022-11-03T09:30:59;13.70;99.90
33492;DHT22;20010;51.488;7.232;2022-11-03T09:33:26;13.70;99.90
33492;DHT22;20010;51.488;7.232;2022-11-03T09:35:52;13.80;99.90
33492;DHT22;20010;51.488;7.232;2022-11-03T09:38:19;13.80;99.90
33492;DHT22;20010;51.488;7.232;2022-11-03T09:40:46;13.80;99.90
33492;DHT22;20010;51.488;7.232;2022-11-03T09:43:14;13.90;99.90
33492;DHT22;20010;51.488;7.232;2022-11-03T09:45:41;14.00;99.90
33492;DHT22;20010;51.488;7.232;2022-11-03T09:48:11;14.00;99.90
33492;DHT22;20010;51.488;7.232;2022-11-03T09:50:39;14.10;99.90
33492;DHT22;20010;51.488;7.232;2022-11-03T09:53:09;14.10;99.90
33492;DHT22;20010;51.488;7.232;2022-11-03T09:55:37;14.10;99.90
33492;DHT22;20010;51.488;7.232;2022-11-03T09:58:15;14.20;99.90
33492;DHT22;20010;51.488;7.232;2022-11-03T10:00:44;14.20;99.90
33492;DHT22;20010;51.488;7.232;2022-11-03T10:03:13;14.20;99.90
33492;DHT22;20010;51.488;7.232;2022-11-03T10:05:42;14.30;99.90
33492;DHT22;20010;51.488;7.232;2022-11-03T10:08:25;14.40;99.90
33492;DHT22;20010;51.488;7.232;2022-11-03T10:10:53;14.40;99.90
33492;DHT22;20010;51.488;7.232;2022-11-03T10:13:29;14.40;99.90
33492;DHT22;20010;51.488;7.232;2022-11-03T10:15:59;14.40;99.90
33492;DHT22;20010;51.488;7.232;2022-11-03T10:18:27;14.50;99.90
33492;DHT22;20010;51.488;7.232;2022-11-03T10:20:54;14.50;99.90
33492;DHT22;20010;51.488;7.232;2022-11-03T10:23:21;14.50;99.90
33492;DHT22;20010;51.488;7.232;2022-11-03T10:25:48;14.50;99.90
33492;DHT22;20010;51.488;7.232;2022-11-03T10:28:24;14.50;99.90
33492;DHT22;20010;51.488;7.232;2022-11-03T10:31:03;14.50;99.90
33492;DHT22;20010;51.488;7.232;2022-11-03T10:33:39;14.50;99.90
33492;DHT22;20010;51.488;7.232;2022-11-03T10:38:43;14.50;99.90
33492;DHT22;20010;51.488;7.232;2022-11-03T10:41:30;14.50;99.90
33492;DHT22;20010;51.488;7.232;2022-11-03T10:46:37;14.50;99.90
33492;DHT22;20010;51.488;7.232;2022-11-03T10:49:20;14.40;99.90
33492;DHT22;20010;51.488;7.232;2022-11-03T10:51:53;14.40;99.90
33492;DHT22;20010;51.488;7.232;2022-11-03T10:54:23;14.50;99.90
33492;DHT22;20010;51.488;7.232;2022-11-03T10:56:51;14.50;99.90
33492;DHT22;20010;51.488;7.232;2022-11-03T10:59:21;14.50;99.90
33492;DHT22;20010;51.488;7.232;2022-11-03T11:01:50;14.50;99.90
33492;DHT22;20010;51.488;7.232;2022-11-03T11:04:18;14.60;99.90
33492;DHT22;20010;51.488;7.232;2022-11-03T11:06:45;14.60;99.90
33492;DHT22;20010;51.488;7.232;2022-11-03T11:09:23;14.60;99.90
33492;DHT22;20010;51.488;7.232;2022-11-03T11:12:02;14.60;99.90
33492;DHT22;20010;51.488;7.232;2022-11-03T11:16:58;14.60;99.90
33492;DHT22;20010;51.488;7.232;2022-11-03T11:19:27;14.60;99.90
33492;DHT22;20010;51.488;7.232;2022-11-03T11:33:11;14.90;99.90
33492;DHT22;20010;51.488;7.232;2022-11-03T11:41:09;15.80;99.90
33492;DHT22;20010;51.488;7.232;2022-11-03T11:43:36;16.00;99.90
33492;DHT22;20010;51.488;7.232;2022-11-03T11:51:36;16.70;99.90
33492;DHT22;20010;51.488;7.232;2022-11-03T11:54:10;16.80;99.90
33492;DHT22;20010;51.488;7.232;2022-11-03T11:56:45;16.80;99.90
33492;DHT22;20010;51.488;7.232;2022-11-03T11:59:22;16.80;99.90
33492;DHT22;20010;51.488;7.232;2022-11-03T12:01:54;16.80;99.90
33492;DHT22;20010;51.488;7.232;2022-11-03T12:04:25;16.60;99.90
33492;DHT22;20010;51.488;7.232;2022-11-03T12:06:52;16.80;99.90
33492;DHT22;20010;51.488;7.232;2022-11-03T12:09:23;17.10;99.90
33492;DHT22;20010;51.488;7.232;2022-11-03T12:11:51;17.20;99.90
33492;DHT22;20010;51.488;7.232;2022-11-03T12:16:57;17.40;99.90
33492;DHT22;20010;51.488;7.232;2022-11-03T12:19:52;17.20;99.90
33492;DHT22;20010;51.488;7.232;2022-11-03T12:24:51;16.70;99.90
33492;DHT22;20010;51.488;7.232;2022-11-03T12:27:39;16.30;99.90
33492;DHT22;20010;51.488;7.232;2022-11-03T12:30:14;15.90;99.90
33492;DHT22;20010;51.488;7.232;2022-11-03T12:32:41;15.70;99.90
33492;DHT22;20010;51.488;7.232;2022-11-03T12:35:08;15.60;99.90
33492;DHT22;20010;51.488;7.232;2022-11-03T12:37:36;15.60;99.90
33492;DHT22;20010;51.488;7.232;2022-11-03T12:40:04;15.50;99.90
33492;DHT22;20010;51.488;7.232;2022-11-03T12:42:31;15.40;99.90
33492;DHT22;20010;51.488;7.232;2022-11-03T12:44:57;15.40;99.90
33492;DHT22;20010;51.488;7.232;2022-11-03T12:47:25;15.40;99.90
33492;DHT22;20010;51.488;7.232;2022-11-03T12:49:51;15.30;99.90
33492;DHT22;20010;51.488;7.232;2022-11-03T12:52:18;15.40;99.90
33492;DHT22;20010;51.488;7.232;2022-11-03T12:54:45;15.70;99.90
33492;DHT22;20010;51.488;7.232;2022-11-03T12:57:12;16.10;99.90
33492;DHT22;20010;51.488;7.232;2022-11-03T12:59:39;16.30;99.90
33492;DHT22;20010;51.488;7.232;2022-11-03T13:02:08;16.40;99.90
33492;DHT22;20010;51.488;7.232;2022-11-03T13:04:35;16.30;99.90
33492;DHT22;20010;51.488;7.232;2022-11-03T13:07:02;16.20;99.90
33492;DHT22;20010;51.488;7.232;2022-11-03T13:09:29;16.00;99.90
33492;DHT22;20010;51.488;7.232;2022-11-03T13:11:56;15.90;99.90
33492;DHT22;20010;51.488;7.232;2022-11-03T13:14:41;15.70;99.90
33492;DHT22;20010;51.488;7.232;2022-11-03T13:17:11;15.50;99.90
33492;DHT22;20010;51.488;7.232;2022-11-03T13:19:38;15.50;99.90
33492;DHT22;20010;51.488;7.232;2022-11-03T13:22:05;15.40;99.90
33492;DHT22;20010;51.488;7.232;2022-11-03T13:24:32;15.30;99.90
33492;DHT22;20010;51.488;7.232;2022-11-03T13:26:59;15.20;99.90
33492;DHT22;20010;51.488;7.232;2022-11-03T13:29:25;15.20;99.90
33492;DHT22;20010;51.488;7.232;2022-11-03T13:31:59;15.10;99.90
33492;DHT22;20010;51.488;7.232;2022-11-03T13:34:26;15.00;99.90
33492;DHT22;20010;51.488;7.232;2022-11-03T13:36:53;14.90;99.90
33492;DHT22;20010;51.488;7.232;2022-11-03T13:39:20;14.80;99.90
33492;DHT22;20010;51.488;7.232;2022-11-03T13:41:47;14.80;99.90
33492;DHT22;20010;51.488;7.232;2022-11-03T13:44:13;14.80;99.90
33492;DHT22;20010;51.488;7.232;2022-11-03T13:46:40;14.80;99.90
33492;DHT22;20010;51.488;7.232;2022-11-03T13:49:07;14.80;99.90
33492;DHT22;20010;51.488;7.232;2022-11-03T13:51:54;14.80;99.90
33492;DHT22;20010;51.488;7.232;2022-11-03T13:54:21;14.80;99.90
33492;DHT22;20010;51.488;7.232;2022-11-03T13:57:07;14.70;99.90
33492;DHT22;20010;51.488;7.232;2022-11-03T13:59:54;14.80;99.90
33492;DHT22;20010;51.488;7.232;2022-11-03T14:02:24;14.60;99.90
33492;DHT22;20010;51.488;7.232;2022-11-03T14:05:11;14.70;99.90
33492;DHT22;20010;51.488;7.232;2022-11-03T14:07:39;14.60;99.90
33492;DHT22;20010;51.488;7.232;2022-11-03T14:10:06;14.50;99.90
33492;DHT22;20010;51.488;7.232;2022-11-03T14:12:33;14.50;99.90
33492;DHT22;20010;51.488;7.232;2022-11-03T14:15:07;14.50;99.90
33492;DHT22;20010;51.488;7.232;2022-11-03T14:17:34;14.50;99.90
33492;DHT22;20010;51.488;7.232;2022-11-03T14:20:02;14.40;99.90
33492;DHT22;20010;51.488;7.232;2022-11-03T14:22:31;14.30;99.90
33492;DHT22;20010;51.488;7.232;2022-11-03T14:24:58;14.40;99.90
33492;DHT22;20010;51.488;7.232;2022-11-03T14:27:26;14.40;99.90
33492;DHT22;20010;51.488;7.232;2022-11-03T14:29:53;14.40;99.90
33492;DHT22;20010;51.488;7.232;2022-11-03T14:32:20;14.30;99.90
33492;DHT22;20010;51.488;7.232;2022-11-03T14:34:47;14.30;99.90
33492;DHT22;20010;51.488;7.232;2022-11-03T14:37:14;14.40;99.90
33492;DHT22;20010;51.488;7.232;2022-11-03T14:39:41;14.30;99.90
33492;DHT22;20010;51.488;7.232;2022-11-03T14:42:13;14.30;99.90
33492;DHT22;20010;51.488;7.232;2022-11-03T14:44:45;14.30;99.90
33492;DHT22;20010;51.488;7.232;2022-11-03T14:47:14;14.30;99.90
33492;DHT22;20010;51.488;7.232;2022-11-03T14:49:44;14.20;99.90
33492;DHT22;20010;51.488;7.232;2022-11-03T14:52:12;14.20;99.90
33492;DHT22;20010;51.488;7.232;2022-11-03T14:54:39;14.20;99.90
33492;DHT22;20010;51.488;7.232;2022-11-03T14:57:06;14.20;99.90
33492;DHT22;20010;51.488;7.232;2022-11-03T14:59:35;14.20;99.90
33492;DHT22;20010;51.488;7.232;2022-11-03T15:02:02;14.20;99.90
33492;DHT22;20010;51.488;7.232;2022-11-03T15:04:30;14.20;99.90
33492;DHT22;20010;51.488;7.232;2022-11-03T15:06:57;14.20;99.90
33492;DHT22;20010;51.488;7.232;2022-11-03T15:09:23;14.20;99.90
33492;DHT22;20010;51.488;7.232;2022-11-03T15:11:50;14.10;99.90
33492;DHT22;20010;51.488;7.232;2022-11-03T15:14:17;14.00;99.90
33492;DHT22;20010;51.488;7.232;2022-11-03T15:16:44;14.00;99.90
33492;DHT22;20010;51.488;7.232;2022-11-03T15:19:11;14.00;99.90
33492;DHT22;20010;51.488;7.232;2022-11-03T15:21:38;13.80;99.90
33492;DHT22;20010;51.488;7.232;2022-11-03T15:24:05;13.70;99.90
33492;DHT22;20010;51.488;7.232;2022-11-03T15:26:52;13.70;99.90
33492;DHT22;20010;51.488;7.232;2022-11-03T15:29:20;13.60;99.90
33492;DHT22;20010;51.488;7.232;2022-11-03T15:31:49;13.60;99.90
33492;DHT22;20010;51.488;7.232;2022-11-03T15:34:16;13.60;99.90
33492;DHT22;20010;51.488;7.232;2022-11-03T15:36:43;13.60;99.90
33492;DHT22;20010;51.488;7.232;2022-11-03T15:39:10;13.50;99.90
33492;DHT22;20010;51.488;7.232;2022-11-03T15:41:38;13.50;99.90
33492;DHT22;20010;51.488;7.232;2022-11-03T15:44:05;13.50;99.90
33492;DHT22;20010;51.488;7.232;2022-11-03T15:46:32;13.40;99.90
33492;DHT22;20010;51.488;7.232;2022-11-03T15:49:01;13.20;99.90
33492;DHT22;20010;51.488;7.232;2022-11-03T15:51:28;13.00;99.90
33492;DHT22;20010;51.488;7.232;2022-11-03T15:53:55;12.90;99.90
33492;DHT22;20010;51.488;7.232;2022-11-03T15:56:28;12.70;99.90
33492;DHT22;20010;51.488;7.232;2022-11-03T15:58:55;12.60;99.90
33492;DHT22;20010;51.488;7.232;2022-11-03T16:01:22;12.50;99.90
33492;DHT22;20010;51.488;7.232;2022-11-03T16:03:49;12.50;99.90
33492;DHT22;20010;51.488;7.232;2022-11-03T16:06:16;12.40;99.90
33492;DHT22;20010;51.488;7.232;2022-11-03T16:08:43;12.40;99.90
33492;DHT22;20010;51.488;7.232;2022-11-03T16:11:10;12.40;99.90
33492;DHT22;20010;51.488;7.232;2022-11-03T16:13:37;12.40;99.90
33492;DHT22;20010;51.488;7.232;2022-11-03T16:16:05;12.40;99.90
33492;DHT22;20010;51.488;7.232;2022-11-03T16:18:32;12.30;99.90
33492;DHT22;20010;51.488;7.232;2022-11-03T16:21:00;12.20;99.90
33492;DHT22;20010;51.488;7.232;2022-11-03T16:23:27;12.10;99.90
33492;DHT22;20010;51.488;7.232;2022-11-03T16:25:53;12.10;99.90
33492;DHT22;20010;51.488;7.232;2022-11-03T16:28:20;11.90;99.90
33492;DHT22;20010;51.488;7.232;2022-11-03T16:30:47;11.90;99.90
33492;DHT22;20010;51.488;7.232;2022-11-03T16:33:20;11.80;99.90
33492;DHT22;20010;51.488;7.232;2022-11-03T16:35:47;11.70;99.90
33492;DHT22;20010;51.488;7.232;2022-11-03T16:38:14;11.70;99.90
33492;DHT22;20010;51.488;7.232;2022-11-03T16:40:41;11.70;99.90
33492;DHT22;20010;51.488;7.232;2022-11-03T16:43:09;11.70;99.90
33492;DHT22;20010;51.488;7.232;2022-11-03T16:45:35;11.70;99.90
33492;DHT22;20010;51.488;7.232;2022-11-03T16:48:04;11.70;99.90
33492;DHT22;20010;51.488;7.232;2022-11-03T16:50:32;11.70;99.90
33492;DHT22;20010;51.488;7.232;2022-11-03T16:52:58;11.70;99.90
33492;DHT22;20010;51.488;7.232;2022-11-03T16:55:25;11.60;99.90
33492;DHT22;20010;51.488;7.232;2022-11-03T16:57:52;11.60;99.90
33492;DHT22;20010;51.488;7.232;2022-11-03T17:00:19;11.60;99.90
33492;DHT22;20010;51.488;7.232;2022-11-03T17:02:46;11.50;99.90
33492;DHT22;20010;51.488;7.232;2022-11-03T17:05:14;11.50;99.90